Time;durP1;ratioP1;P1;durP2;ratioP2;P2;SDS_P1;SDS_P2;PMS_P1;PMS_P2;Temp;Humidity;BMP_temperature;BMP_pressure;BME280_temperature;BME280_humidity;BME280_pressure;Samples;Min_cycle;Max_cycle;Signal;HPM_P1;HPM_P2
2022/12/26 00:00:38;;;;;;;2.38;1.27;;;;;;;9.16;100.00;100978.47;10414941;28;20084;-65
2022/12/26 00:05:40;;;;;;;0.10;0.10;;;;;;;9.09;100.00;100972.75;10416729;28;20107;-65
2022/12/26 00:10:42;;;;;;;12.05;2.00;;;;;;;9.06;100.00;100982.47;10416694;28;20188;-65
2022/12/26 00:15:45;;;;;;;1.33;1.30;;;;;;;9.07;100.00;100982.38;10415152;28;20045;-64
2022/12/26 00:20:47;;;;;;;1.65;1.55;;;;;;;9.13;100.00;100977.78;10395896;28;20504;-64
2022/12/26 00:25:50;;;;;;;2.28;1.17;;;;;;;9.09;100.00;100983.19;10416153;28;20058;-65
2022/12/26 00:30:52;;;;;;;1.23;1.17;;;;;;;9.09;100.00;100996.25;10416000;28;20060;-65
2022/12/26 00:35:59;;;;;;;0.20;0.20;;;;;;;9.01;100.00;101002.72;10415301;28;20440;-65
2022/12/26 00:41:01;;;;;;;1.15;0.80;;;;;;;9.20;100.00;101007.94;10396511;28;20057;-65
2022/12/26 00:46:04;;;;;;;0.20;0.20;;;;;;;9.32;100.00;101024.78;10396357;28;20374;-65
2022/12/26 00:51:06;;;;;;;0.10;0.10;;;;;;;9.09;100.00;101021.50;10415704;28;20049;-65
2022/12/26 00:56:09;;;;;;;4.47;2.25;;;;;;;9.28;100.00;101004.03;10422344;28;20049;-65
2022/12/26 01:01:17;;;;;;;12.73;4.68;;;;;;;9.10;100.00;101039.72;10423626;28;20050;-65
2022/12/26 01:06:19;;;;;;;3.67;2.83;;;;;;;9.05;100.00;101054.75;10423072;28;20053;-65
2022/12/26 01:11:40;;;;;;;1.73;1.65;;;;;;;9.05;100.00;101052.13;10422907;28;20053;-64
2022/12/26 01:16:44;;;;;;;3.72;2.97;;;;;;;9.06;100.00;101042.53;10421460;28;20049;-64
2022/12/26 01:21:47;;;;;;;2.38;1.83;;;;;;;9.10;100.00;101058.00;10404199;28;20103;-64
2022/12/26 01:26:49;;;;;;;1.17;1.17;;;;;;;9.05;100.00;101054.75;10421135;28;20077;-64
2022/12/26 01:31:52;;;;;;;8.40;3.72;;;;;;;9.00;100.00;101068.97;10422768;28;20049;-64
2022/12/26 01:36:54;;;;;;;0.50;0.50;;;;;;;9.32;100.00;101046.53;10403248;28;20163;-64
2022/12/26 01:41:56;;;;;;;1.48;1.48;;;;;;;9.05;100.00;101038.25;10420928;28;20076;-64
2022/12/26 01:46:59;;;;;;;1.23;1.00;;;;;;;8.93;100.00;101045.72;10421377;28;20046;-64
2022/12/26 01:52:07;;;;;;;2.35;2.20;;;;;;;9.16;100.00;101037.72;10404500;28;20056;-64
2022/12/26 01:57:14;;;;;;;0.20;0.20;;;;;;;9.03;100.00;101029.66;10403002;28;20046;-65
2022/12/26 02:02:18;;;;;;;1.45;1.38;;;;;;;9.00;100.00;101041.06;10420156;28;20057;-64
2022/12/26 02:07:21;;;;;;;0.20;0.20;;;;;;;9.06;100.00;101043.41;10401257;28;20457;-64
2022/12/26 02:12:33;;;;;;;1.52;1.45;;;;;;;8.92;100.00;101036.19;10402234;28;20419;-64
2022/12/26 02:17:41;;;;;;;0.32;0.32;;;;;;;8.80;100.00;101030.72;10420235;28;20053;-65
2022/12/26 02:22:52;;;;;;;11.13;5.22;;;;;;;8.77;100.00;101039.50;10419742;28;20061;-65
2022/12/26 02:28:09;;;;;;;2.00;1.77;;;;;;;8.92;100.00;101061.47;10419321;28;20484;-65
2022/12/26 02:33:15;;;;;;;3.92;1.45;;;;;;;8.85;100.00;101053.06;10420483;28;20099;-65
2022/12/26 02:38:28;;;;;;;6.80;3.78;;;;;;;8.89;100.00;101043.31;10416856;28;20088;-65
2022/12/26 02:43:50;;;;;;;4.18;2.47;;;;;;;8.92;100.00;101046.63;10403006;28;20056;-65
2022/12/26 02:49:14;;;;;;;2.15;1.95;;;;;;;8.99;100.00;101056.81;10418292;28;20045;-65
2022/12/26 03:21:57;;;;;;;7.05;3.97;;;;;;;8.80;100.00;101023.72;10402362;28;20089;-65
2022/12/26 03:26:59;;;;;;;3.40;2.72;;;;;;;8.79;100.00;101034.22;10399678;28;20392;-65
2022/12/26 03:32:04;;;;;;;18.63;9.88;;;;;;;8.68;100.00;101046.00;10417469;28;20404;-65
2022/12/26 03:37:36;;;;;;;4.75;3.47;;;;;;;8.71;100.00;101047.66;10398788;28;20511;-65
2022/12/26 04:44:18;;;;;;;2.20;2.00;;;;;;;8.88;100.00;101091.25;10400936;28;20091;-65
2022/12/26 04:54:41;;;;;;;0.17;0.17;;;;;;;8.82;100.00;101068.88;10414815;28;20068;-65
2022/12/26 04:59:43;;;;;;;0.20;0.20;;;;;;;8.67;100.00;101061.75;10413834;28;20511;-65
2022/12/26 05:10:10;;;;;;;0.10;0.10;;;;;;;8.69;100.00;101034.66;10415343;28;20052;-65
2022/12/26 05:15:13;;;;;;;2.65;2.20;;;;;;;8.62;100.00;101048.06;10395949;28;20067;-65
2022/12/26 05:31:00;;;;;;;0.20;0.20;;;;;;;8.43;100.00;101058.47;10398763;28;20512;-65
2022/12/26 05:36:03;;;;;;;0.52;0.43;;;;;;;8.46;100.00;101058.34;10395916;28;20060;-66
2022/12/26 05:41:06;;;;;;;0.30;0.30;;;;;;;8.37;100.00;101076.06;10399675;28;20071;-65
2022/12/26 05:46:08;;;;;;;2.53;2.33;;;;;;;8.37;100.00;101065.63;10421479;28;20397;-65
2022/12/26 05:51:11;;;;;;;0.20;0.20;;;;;;;8.31;100.00;101054.59;10421472;28;20481;-65
2022/12/26 05:56:15;;;;;;;0.45;0.45;;;;;;;8.47;100.00;101049.56;10402876;28;20459;-65
2022/12/26 06:01:18;;;;;;;0.40;0.40;;;;;;;8.39;100.00;101036.84;10403151;28;20056;-65
2022/12/26 06:06:22;;;;;;;2.63;0.40;;;;;;;8.55;100.00;101018.78;10420294;28;20136;-65
2022/12/26 06:11:25;;;;;;;0.20;0.20;;;;;;;8.32;100.00;101024.97;10421291;28;20053;-65
2022/12/26 06:16:28;;;;;;;0.20;0.20;;;;;;;8.21;100.00;101016.81;10402907;28;20325;-65
2022/12/26 06:21:30;;;;;;;0.43;0.43;;;;;;;8.07;100.00;101025.19;10419021;28;20053;-65
2022/12/26 06:26:32;;;;;;;0.10;0.10;;;;;;;8.16;100.00;101028.25;10419598;28;20053;-65
2022/12/26 06:31:35;;;;;;;0.73;0.45;;;;;;;8.08;100.00;101032.13;10420585;28;20053;-65
2022/12/26 06:36:37;;;;;;;0.43;0.35;;;;;;;8.16;100.00;101043.91;10401841;28;20046;-65
2022/12/26 06:41:40;;;;;;;1.67;1.55;;;;;;;8.13;100.00;101053.63;10418805;28;20053;-65
2022/12/26 06:46:42;;;;;;;0.10;0.10;;;;;;;8.14;100.00;101061.41;10401827;28;20072;-65
2022/12/26 06:51:44;;;;;;;0.55;0.55;;;;;;;8.19;100.00;101079.47;10418399;28;20053;-65
2022/12/26 06:56:47;;;;;;;0.55;0.55;;;;;;;8.33;100.00;101089.28;10417738;28;20443;-65
2022/12/26 07:01:49;;;;;;;0.20;0.20;;;;;;;8.44;100.00;101088.84;10418132;28;20049;-65
2022/12/26 07:06:51;;;;;;;2.97;2.83;;;;;;;8.34;100.00;101091.84;10400484;28;20520;-65
2022/12/26 07:11:55;;;;;;;2.90;2.10;;;;;;;8.32;100.00;101104.13;10419000;28;20092;-65
2022/12/26 07:16:57;;;;;;;0.20;0.20;;;;;;;8.23;100.00;101080.19;10400394;28;20041;-65
2022/12/26 07:21:59;;;;;;;0.38;0.38;;;;;;;8.35;100.00;101088.34;10416692;28;20132;-65
2022/12/26 07:27:02;;;;;;;0.65;0.65;;;;;;;8.19;100.00;101095.94;10415718;28;20045;-65
2022/12/26 07:32:04;;;;;;;0.22;0.22;;;;;;;8.21;100.00;101088.06;10417619;28;20060;-65
2022/12/26 07:37:07;;;;;;;0.43;0.40;;;;;;;8.15;100.00;101094.41;10456289;23;20475;-66
2022/12/26 07:42:09;;;;;;;0.75;0.75;;;;;;;8.11;100.00;101097.19;10456750;28;20449;-66
2022/12/26 07:47:12;;;;;;;0.20;0.20;;;;;;;8.14;100.00;101097.91;10457443;28;20439;-66
2022/12/26 07:52:17;;;;;;;0.38;0.38;;;;;;;8.18;100.00;101088.19;10457174;28;20049;-66
2022/12/26 07:57:19;;;;;;;1.40;1.30;;;;;;;8.10;100.00;101100.72;10455577;28;20052;-66
2022/12/26 08:02:42;;;;;;;0.20;0.20;;;;;;;8.34;100.00;101091.00;10455755;28;20102;-66
2022/12/26 08:07:47;;;;;;;0.10;0.10;;;;;;;8.07;100.00;101099.09;10456681;28;20512;-66
2022/12/26 08:12:49;;;;;;;1.17;0.93;;;;;;;8.04;100.00;101098.38;10457156;28;20064;-66
2022/12/26 08:17:51;;;;;;;1.23;0.55;;;;;;;8.12;100.00;101112.78;10456347;28;20051;-66
2022/12/26 08:22:54;;;;;;;0.95;0.95;;;;;;;8.19;100.00;101102.94;10457480;28;20053;-66
2022/12/26 08:28:01;;;;;;;1.00;1.00;;;;;;;8.02;100.00;101101.03;10432312;28;20049;-66
2022/12/26 08:33:03;;;;;;;3.47;3.25;;;;;;;8.17;100.00;101105.63;10454912;28;20056;-65
2022/12/26 08:38:06;;;;;;;1.40;1.33;;;;;;;8.53;100.00;101104.13;10455579;28;20102;-66
2022/12/26 08:43:08;;;;;;;0.40;0.40;;;;;;;8.44;100.00;101115.81;10457109;28;20056;-66
2022/12/26 08:48:31;;;;;;;0.10;0.10;;;;;;;8.65;100.00;101087.91;10430806;28;20049;-66
2022/12/26 08:53:35;;;;;;;0.50;0.50;;;;;;;8.77;100.00;101081.28;10446981;28;20049;-66
2022/12/26 08:58:37;;;;;;;1.17;0.65;;;;;;;8.80;100.00;101095.97;10460416;28;20058;-66
2022/12/26 09:03:40;;;;;;;1.80;1.48;;;;;;;8.78;100.00;101109.09;10459456;28;20095;-66
2022/12/26 09:08:43;;;;;;;6.93;1.05;;;;;;;8.92;100.00;101116.31;10462531;28;20060;-66
2022/12/26 09:13:45;;;;;;;3.30;1.95;;;;;;;8.98;100.00;101105.59;10497891;28;20052;-66
2022/12/26 09:18:52;;;;;;;1.10;1.00;;;;;;;8.99;100.00;101096.81;10485856;28;20052;-66
2022/12/26 09:23:59;;;;;;;1.52;1.38;;;;;;;8.84;100.00;101116.66;10496795;28;20110;-66
2022/12/26 09:29:02;;;;;;;0.35;0.35;;;;;;;9.03;100.00;101110.59;10487970;28;20049;-66
2022/12/26 09:34:05;;;;;;;0.22;0.22;;;;;;;9.26;100.00;101114.75;10496303;28;20056;-66
2022/12/26 09:39:09;;;;;;;2.42;2.25;;;;;;;9.20;100.00;101122.88;10448992;28;20045;-66
2022/12/26 09:44:23;;;;;;;1.98;0.50;;;;;;;9.26;100.00;101125.19;10443806;28;20052;-66
2022/12/26 09:49:39;;;;;;;1.23;0.85;;;;;;;9.08;100.00;101124.31;10456664;28;20415;-66
2022/12/26 09:54:52;;;;;;;5.22;1.63;;;;;;;9.33;100.00;101123.16;10477756;28;20048;-66
2022/12/26 09:59:57;;;;;;;0.40;0.40;;;;;;;9.42;100.00;101120.13;10474691;28;20049;-66
2022/12/26 10:04:59;;;;;;;2.28;0.95;;;;;;;9.51;100.00;101139.72;10450205;28;20049;-66
2022/12/26 10:10:08;;;;;;;0.68;0.68;;;;;;;9.33;100.00;101151.88;10456790;28;20044;-66
2022/12/26 10:15:42;;;;;;;0.10;0.10;;;;;;;9.31;100.00;101149.34;10463026;28;20056;-66
2022/12/26 10:21:16;;;;;;;13.63;2.75;;;;;;;9.24;100.00;101147.94;10445279;28;20107;-66
2022/12/26 10:26:27;;;;;;;2.63;1.27;;;;;;;9.16;100.00;101158.72;10459087;28;20484;-66
2022/12/26 10:31:37;;;;;;;0.10;0.10;;;;;;;8.92;100.00;101223.38;10461949;28;20079;-65
2022/12/26 10:36:53;;;;;;;3.55;0.70;;;;;;;8.56;100.00;101234.47;10459701;28;20557;-64
2022/12/26 10:41:58;;;;;;;0.73;0.73;;;;;;;8.58;100.00;101237.03;10460402;28;20098;-64
2022/12/26 10:47:26;;;;;;;3.88;0.75;;;;;;;8.64;100.00;101241.97;10460041;28;20064;-65
2022/12/26 10:52:36;;;;;;;0.47;0.47;;;;;;;8.66;100.00;101245.38;10443660;28;20055;-65
2022/12/26 10:57:40;;;;;;;3.53;1.13;;;;;;;8.59;100.00;101236.09;10460427;28;20090;-65
2022/12/26 11:02:42;;;;;;;0.30;0.30;;;;;;;8.49;100.00;101244.34;10459543;28;20099;-65
2022/12/26 11:07:54;;;;;;;0.32;0.32;;;;;;;8.68;100.00;101264.44;10460420;28;20049;-65
2022/12/26 11:13:04;;;;;;;1.48;0.55;;;;;;;8.11;100.00;101298.84;10459115;28;20049;-65
2022/12/26 11:18:21;;;;;;;0.80;0.77;;;;;;;7.94;100.00;101309.94;10458362;28;20545;-65
2022/12/26 11:23:30;;;;;;;0.10;0.10;;;;;;;7.86;100.00;101313.75;10459299;28;20056;-65
2022/12/26 11:28:36;;;;;;;0.10;0.10;;;;;;;8.23;100.00;101321.00;10459678;28;20052;-65
2022/12/26 11:33:43;;;;;;;0.43;0.43;;;;;;;8.18;100.00;101323.78;10459312;28;20056;-65
2022/12/26 11:38:52;;;;;;;1.88;0.55;;;;;;;7.72;100.00;101328.16;10457188;28;20393;-65
2022/12/26 11:43:57;;;;;;;6.13;0.68;;;;;;;7.58;100.00;101322.56;10457961;28;20053;-65
2022/12/26 11:49:00;;;;;;;5.68;0.80;;;;;;;7.82;100.00;101333.88;10457620;28;20064;-65
2022/12/26 11:54:19;;;;;;;2.75;0.90;;;;;;;7.92;100.00;101335.22;10457472;28;20045;-66
2022/12/26 11:59:22;;;;;;;0.10;0.10;;;;;;;7.98;100.00;101332.41;10458494;28;20094;-65
2022/12/26 12:04:25;;;;;;;19.15;2.83;;;;;;;7.67;100.00;101332.69;10457624;28;20139;-65
2022/12/26 12:09:40;;;;;;;0.90;0.70;;;;;;;7.70;100.00;101327.38;10457373;28;20515;-65
2022/12/26 12:15:19;;;;;;;0.22;0.22;;;;;;;7.25;100.00;101326.34;10456794;28;20099;-65
2022/12/26 12:20:31;;;;;;;0.75;0.38;;;;;;;7.29;100.00;101334.06;10455966;28;20389;-65
2022/12/26 12:25:43;;;;;;;0.95;0.77;;;;;;;7.23;100.00;101341.19;10457030;28;20059;-64
2022/12/26 12:31:11;;;;;;;0.15;0.15;;;;;;;7.57;100.00;101345.19;10457398;28;20171;-65
2022/12/26 12:36:47;;;;;;;0.17;0.17;;;;;;;7.62;100.00;101335.44;10456666;28;20071;-65
2022/12/26 12:42:23;;;;;;;0.20;0.20;;;;;;;7.35;100.00;101341.66;10402781;28;20090;-65
2022/12/26 12:47:55;;;;;;;0.15;0.15;;;;;;;7.40;100.00;101356.22;10456719;28;20057;-64
2022/12/26 12:53:19;;;;;;;1.08;0.63;;;;;;;7.16;100.00;101357.94;10455620;28;20057;-65
2022/12/26 12:58:31;;;;;;;3.53;0.50;;;;;;;7.13;100.00;101360.63;10456713;28;20385;-65
2022/12/26 13:03:45;;;;;;;;;;;;;;;7.16;100.00;101367.47;10455983;28;20106;-65
2022/12/26 13:08:55;;;;;;;1.33;0.30;;;;;;;7.26;100.00;101371.47;10455415;28;19967;-64
2022/12/26 13:14:06;;;;;;;0.10;0.10;;;;;;;7.63;100.00;101371.03;10454845;28;20506;-65
2022/12/26 13:19:44;;;;;;;0.53;0.30;;;;;;;7.19;100.00;101383.84;10456160;28;20049;-65
2022/12/26 13:24:58;;;;;;;1.23;0.50;;;;;;;7.02;100.00;101389.63;10393746;28;20080;-64
2022/12/26 13:30:06;;;;;;;0.40;0.40;;;;;;;7.22;100.00;101388.13;10455072;28;20045;-64
2022/12/26 13:35:56;;;;;;;0.75;0.68;;;;;;;6.72;100.00;101394.06;10454612;28;20057;-64
2022/12/26 13:43:53;;;;;;;0.10;0.10;;;;;;;7.18;100.00;101396.94;10450324;28;20111;-64
2022/12/26 13:46:50;;;;;;;0.10;0.10;;;;;;;6.96;100.00;101404.59;10454249;28;20480;-65
2022/12/26 13:51:57;;;;;;;0.20;0.20;;;;;;;6.82;100.00;101424.09;10453297;28;20044;-64
2022/12/26 13:57:23;;;;;;;0.35;0.25;;;;;;;6.63;100.00;101429.03;10454533;28;20045;-64
2022/12/26 14:02:43;;;;;;;1.23;0.75;;;;;;;6.75;100.00;101442.56;10458815;28;20485;-64
2022/12/26 14:08:14;;;;;;;0.10;0.10;;;;;;;6.68;100.00;101441.91;10462943;28;20057;-65
2022/12/26 14:13:23;;;;;;;3.90;0.43;;;;;;;6.39;100.00;101448.84;10462627;28;20049;-64
2022/12/26 14:18:37;;;;;;;0.20;0.20;;;;;;;6.32;100.00;101453.38;10462540;28;20045;-64
2022/12/26 14:24:06;;;;;;;0.20;0.20;;;;;;;6.12;100.00;101459.16;10461032;28;20515;-64
2022/12/26 14:29:20;;;;;;;0.38;0.38;;;;;;;6.19;100.00;101466.78;10460843;28;20049;-64
2022/12/26 14:34:49;;;;;;;0.30;0.30;;;;;;;6.06;100.00;101463.66;10460497;28;20183;-64
2022/12/26 14:40:16;;;;;;;2.60;0.47;;;;;;;5.80;100.00;101475.59;10461630;28;20056;-64
2022/12/26 14:45:28;;;;;;;0.10;0.10;;;;;;;5.84;100.00;101487.59;10461370;28;20099;-64
2022/12/26 14:50:39;;;;;;;0.30;0.13;;;;;;;5.75;100.00;101490.47;10461075;28;20049;-64
2022/12/26 14:55:51;;;;;;;0.30;0.30;;;;;;;5.64;100.00;101497.69;10460915;28;20131;-64
2022/12/26 15:00:54;;;;;;;0.30;0.30;;;;;;;5.36;100.00;101504.41;10459720;28;20049;-64
2022/12/26 15:06:19;;;;;;;0.20;0.20;;;;;;;5.33;100.00;101519.19;10459489;28;20110;-64
2022/12/26 15:11:56;;;;;;;0.10;0.10;;;;;;;5.43;100.00;101528.50;10459818;28;20041;-64
2022/12/26 15:17:04;;;;;;;2.80;0.75;;;;;;;5.32;100.00;101546.91;10459588;28;20045;-64
2022/12/26 15:22:32;;;;;;;0.40;0.40;;;;;;;5.14;100.00;101557.72;10460038;28;20060;-64
2022/12/26 15:27:57;;;;;;;0.35;0.35;;;;;;;4.98;100.00;101565.84;10457915;28;20052;-64
2022/12/26 15:33:13;;;;;;;0.88;0.88;;;;;;;4.97;100.00;101582.28;10459460;28;20132;-65
2022/12/26 15:38:44;;;;;;;0.20;0.20;;;;;;;4.97;100.00;101584.06;10458563;28;20052;-64
2022/12/26 15:44:23;;;;;;;0.30;0.30;;;;;;;4.73;100.00;101595.81;10457293;28;20533;-64
2022/12/26 15:49:38;;;;;;;7.57;4.22;;;;;;;4.71;100.00;101597.56;10435726;28;20056;-64
2022/12/26 15:54:57;;;;;;;2.97;2.67;;;;;;;4.59;100.00;101602.13;10457539;28;20098;-64
2022/12/26 16:00:22;;;;;;;16.90;2.05;;;;;;;4.55;100.00;101607.38;10458499;28;20044;-64
2022/12/26 16:05:55;;;;;;;1.63;0.80;;;;;;;4.36;100.00;101625.88;10456552;28;20079;-64
2022/12/26 16:11:18;;;;;;;1.50;1.45;;;;;;;4.36;100.00;101635.41;10456570;28;20489;-64
2022/12/26 16:16:38;;;;;;;1.30;0.88;;;;;;;4.26;100.00;101639.91;10456669;28;20044;-64
2022/12/26 16:27:03;;;;;;;2.92;0.75;;;;;;;4.22;100.00;101648.59;10456597;28;20056;-64
2022/12/26 16:32:06;;;;;;;0.20;0.20;;;;;;;4.01;100.00;101653.25;10455537;28;20515;-64
2022/12/26 16:37:18;;;;;;;0.20;0.20;;;;;;;4.05;100.00;101662.72;10455738;28;20057;-64
2022/12/26 16:42:28;;;;;;;;;;;;;;;4.07;100.00;101675.66;10439235;28;20053;-64
2022/12/26 16:47:32;;;;;;;0.10;0.10;;;;;;;3.93;100.00;101681.03;10455766;28;19975;-64
2022/12/26 16:52:37;;;;;;;0.20;0.20;;;;;;;3.80;100.00;101685.56;10455781;28;20091;-64
2022/12/26 16:57:47;;;;;;;0.10;0.10;;;;;;;3.78;100.00;101679.53;10456935;28;20099;-67
2022/12/26 17:02:55;;;;;;;0.10;0.10;;;;;;;3.78;100.00;101687.28;10455580;28;20056;-64
2022/12/26 17:08:00;;;;;;;0.25;0.25;;;;;;;3.65;100.00;101683.19;10454829;28;20053;-64
2022/12/26 17:13:06;;;;;;;0.20;0.20;;;;;;;3.69;100.00;101703.84;10455440;28;20124;-64
2022/12/26 17:18:28;;;;;;;0.20;0.20;;;;;;;3.59;100.00;101701.41;10439173;28;20075;-64
2022/12/26 17:23:41;;;;;;;0.10;0.10;;;;;;;3.51;100.00;101719.63;10455144;28;20045;-64
2022/12/26 17:28:43;;;;;;;0.68;0.68;;;;;;;3.50;100.00;101718.78;10455064;28;20052;-64
2022/12/26 17:33:45;;;;;;;0.10;0.10;;;;;;;3.32;100.00;101722.44;10454660;28;20053;-64
2022/12/26 17:38:49;;;;;;;0.20;0.20;;;;;;;3.32;100.00;101727.63;10461775;28;20111;-64
2022/12/26 17:43:51;;;;;;;0.15;0.15;;;;;;;3.25;100.00;101728.59;10446181;28;20052;-66
2022/12/26 17:48:54;;;;;;;0.25;0.20;;;;;;;3.35;100.00;101734.50;10445861;28;20049;-64
2022/12/26 17:53:56;;;;;;;0.10;0.10;;;;;;;3.44;100.00;101725.75;10463478;28;20053;-64
2022/12/26 17:58:58;;;;;;;0.30;0.30;;;;;;;3.53;100.00;101730.81;10463250;28;20049;-64
2022/12/26 18:04:00;;;;;;;0.30;0.30;;;;;;;3.13;100.00;101739.09;10462378;28;20484;-64
2022/12/26 18:09:03;;;;;;;0.85;0.85;;;;;;;3.25;100.00;101738.94;10461613;28;20094;-64
2022/12/26 18:14:08;;;;;;;0.28;0.28;;;;;;;3.24;100.00;101741.53;10461556;28;20052;-64
2022/12/26 18:19:16;;;;;;;0.40;0.40;;;;;;;3.24;100.00;101752.75;10461309;28;20048;-65
2022/12/26 18:24:18;;;;;;;0.30;0.30;;;;;;;3.16;100.00;101768.38;10462283;28;20056;-65
2022/12/26 18:29:20;;;;;;;1.13;0.60;;;;;;;3.11;100.00;101784.81;10444439;28;20045;-65
2022/12/26 18:34:23;;;;;;;1.13;0.60;;;;;;;3.17;100.00;101788.19;10460961;28;20438;-65
2022/12/26 18:39:25;;;;;;;0.20;0.20;;;;;;;3.09;100.00;101787.44;10461324;28;20444;-65
2022/12/26 18:44:28;;;;;;;0.22;0.22;;;;;;;3.10;100.00;101793.47;10461426;28;20056;-65
2022/12/26 18:49:30;;;;;;;0.73;0.57;;;;;;;3.08;100.00;101810.75;10460156;28;20049;-65
2022/12/26 18:54:35;;;;;;;0.10;0.10;;;;;;;3.21;100.00;101814.03;10461102;28;20099;-65
2022/12/26 18:59:37;;;;;;;0.38;0.38;;;;;;;3.06;100.00;101825.41;10459776;28;20094;-65
2022/12/26 19:04:39;;;;;;;0.73;0.73;;;;;;;3.12;100.00;101835.69;10460747;28;20060;-65
2022/12/26 19:09:43;;;;;;;0.20;0.20;;;;;;;3.21;100.00;101842.50;10460359;28;20044;-65
2022/12/26 19:14:45;;;;;;;0.40;0.40;;;;;;;3.32;100.00;101849.28;10458614;28;20091;-65
2022/12/26 19:19:48;;;;;;;0.20;0.20;;;;;;;3.25;100.00;101855.41;10460127;28;20053;-65
2022/12/26 19:24:52;;;;;;;1.58;1.48;;;;;;;3.10;100.00;101869.34;10458736;28;20053;-65
2022/12/26 19:29:54;;;;;;;0.20;0.20;;;;;;;3.13;100.00;101855.53;10458994;28;20396;-65
2022/12/26 19:34:56;;;;;;;0.65;0.65;;;;;;;3.19;100.00;101880.50;10458800;28;20065;-65
2022/12/26 19:39:59;;;;;;;0.50;0.40;;;;;;;3.13;100.00;101878.84;10459034;28;20110;-65
2022/12/26 19:45:02;;;;;;;0.30;0.30;;;;;;;3.29;100.00;101890.72;10458997;28;20055;-65
2022/12/26 19:50:05;;;;;;;0.20;0.20;;;;;;;3.50;100.00;101889.66;10445775;22;20566;-65
2022/12/26 19:55:09;;;;;;;0.10;0.10;;;;;;;3.42;100.00;101886.31;10399368;28;20420;-65
2022/12/26 20:00:11;;;;;;;0.22;0.22;;;;;;;3.48;100.00;101888.84;10399561;28;20511;-65
2022/12/26 20:05:14;;;;;;;0.20;0.20;;;;;;;3.39;100.00;101881.16;10416417;28;20053;-65
2022/12/26 20:10:16;;;;;;;0.50;0.50;;;;;;;3.70;100.00;101894.63;10416491;28;20095;-65
2022/12/26 20:15:18;;;;;;;0.20;0.20;;;;;;;3.63;100.00;101890.41;10416179;28;20408;-65
2022/12/26 20:20:21;;;;;;;0.10;0.10;;;;;;;3.52;100.00;101895.69;10416472;28;20436;-65
2022/12/26 20:25:23;;;;;;;2.42;0.60;;;;;;;3.60;100.00;101893.03;10415939;28;20053;-65
2022/12/26 20:30:26;;;;;;;0.63;0.20;;;;;;;3.57;100.00;101897.38;10416321;28;20045;-64
2022/12/26 20:35:28;;;;;;;0.38;0.30;;;;;;;3.45;100.00;101888.88;10415598;28;20495;-65
2022/12/26 20:40:31;;;;;;;0.10;0.10;;;;;;;3.55;100.00;101892.22;10416283;28;20042;-64
2022/12/26 20:45:35;;;;;;;0.30;0.30;;;;;;;3.31;100.00;101898.47;10415961;28;20115;-64
2022/12/26 20:50:38;;;;;;;1.00;0.65;;;;;;;3.27;100.00;101908.00;10415301;28;20144;-64
2022/12/26 20:55:40;;;;;;;3.70;1.75;;;;;;;3.45;100.00;101919.09;10415826;28;20065;-65
2022/12/26 21:00:43;;;;;;;0.20;0.20;;;;;;;3.54;100.00;101912.06;10415625;28;20049;-65
2022/12/26 21:05:46;;;;;;;0.10;0.10;;;;;;;3.47;100.00;101925.09;10415024;28;20045;-64
2022/12/26 21:10:48;;;;;;;1.27;1.27;;;;;;;3.53;100.00;101923.31;10418239;28;20046;-64
2022/12/26 21:15:50;;;;;;;0.10;0.10;;;;;;;3.46;100.00;101928.56;10423742;28;20060;-65
2022/12/26 21:20:53;;;;;;;0.10;0.10;;;;;;;3.38;100.00;101940.72;10405474;28;20048;-64
2022/12/26 21:25:57;;;;;;;0.20;0.20;;;;;;;3.44;100.00;101935.47;10422710;28;20488;-64
2022/12/26 21:30:59;;;;;;;0.57;0.57;;;;;;;3.32;100.00;101950.25;10405563;28;20049;-64
2022/12/26 21:36:08;;;;;;;0.30;0.30;;;;;;;3.40;100.00;101946.75;10422950;28;20136;-65
2022/12/26 21:41:11;;;;;;;0.10;0.10;;;;;;;3.39;100.00;101945.88;10405257;28;20469;-64
2022/12/26 21:46:17;;;;;;;0.15;0.15;;;;;;;3.43;100.00;101946.69;10403206;28;20045;-64
2022/12/26 21:51:21;;;;;;;0.10;0.10;;;;;;;3.45;100.00;101953.59;10420417;28;20440;-65
2022/12/26 21:56:23;;;;;;;0.10;0.10;;;;;;;3.46;100.00;101959.63;10441739;28;20091;-65
2022/12/26 22:01:27;;;;;;;0.25;0.25;;;;;;;3.31;100.00;101968.38;10421845;28;20042;-64
2022/12/26 22:06:29;;;;;;;0.10;0.10;;;;;;;3.26;100.00;101983.97;10403436;28;20085;-65
2022/12/26 22:16:53;;;;;;;0.10;0.10;;;;;;;3.23;100.00;101991.75;10419694;28;20049;-65
2022/12/26 22:21:56;;;;;;;0.40;0.40;;;;;;;3.22;100.00;101994.34;10419932;28;20052;-64
2022/12/26 22:26:58;;;;;;;0.10;0.10;;;;;;;3.25;100.00;101995.19;10415662;28;20053;-64
2022/12/26 22:32:00;;;;;;;0.10;0.10;;;;;;;3.07;100.00;102005.66;10420636;28;20041;-64
2022/12/26 22:37:03;;;;;;;0.10;0.10;;;;;;;3.24;100.00;102014.16;10419813;28;20046;-64
2022/12/26 22:42:05;;;;;;;1.60;1.17;;;;;;;3.10;100.00;102016.84;10420921;28;20131;-64
2022/12/26 22:47:08;;;;;;;0.20;0.20;;;;;;;3.23;100.00;102009.00;10419205;28;20058;-64
2022/12/26 22:52:10;;;;;;;0.65;0.40;;;;;;;3.15;100.00;102011.66;10419291;28;20053;-64
2022/12/26 22:57:17;;;;;;;0.60;0.60;;;;;;;3.14;100.00;102012.50;10363651;28;20390;-64
2022/12/26 23:02:19;;;;;;;0.13;0.13;;;;;;;3.08;100.00;102017.75;10378667;28;20053;-64
2022/12/26 23:07:22;;;;;;;0.20;0.20;;;;;;;3.07;100.00;102019.44;10415349;28;20049;-64
2022/12/26 23:12:43;;;;;;;0.10;0.10;;;;;;;3.16;100.00;102031.47;10418526;28;20099;-64
2022/12/26 23:23:15;;;;;;;0.10;0.10;;;;;;;3.09;100.00;102035.84;10417402;28;20473;-64
2022/12/26 23:33:38;;;;;;;0.75;0.40;;;;;;;3.08;100.00;102028.94;10388292;28;20104;-64
2022/12/26 23:38:40;;;;;;;0.22;0.22;;;;;;;3.08;100.00;102047.06;10376686;28;20045;-64
2022/12/26 23:43:43;;;;;;;0.10;0.10;;;;;;;3.26;100.00;102032.25;10383928;28;20056;-64
2022/12/26 23:48:45;;;;;;;0.10;0.10;;;;;;;3.15;100.00;102047.88;10417005;28;20061;-65
2022/12/26 23:53:48;;;;;;;2.90;0.30;;;;;;;3.12;100.00;102045.31;10416527;28;20061;-64
2022/12/26 23:58:50;;;;;;;0.20;0.20;;;;;;;3.08;100.00;102048.78;10416649;28;20060;-64
